Saturday, February 24, 2018, 3:14 AM EST
Back to Local

KPHF, Williamsburg International Airport

Location: Newport News, VA, United States Lat: 37.133
Local Time: 3:14 AM EST ( 8:14 GMT) Lon: -76.5
Time Zone: US/Eastern Elev: 42 ft

Show me the last for .
Show Decoded

2018-02-24 02:54 METAR KPHF 240754Z AUTO 20003KT 1/4SM FG VV002 11/11 A3022 RMK AO2 SLP233
                 T01110106 =
2018-02-24 01:54 METAR KPHF 240654Z AUTO 00000KT 1/4SM FG VV002 10/09 A3025 RMK AO2 SLP242
                 T01000094 =
2018-02-24 01:30 METAR KPHF 240630Z AUTO 00000KT 1/4SM FG VV002 10/09 A3026 RMK AO2 T01000094 =
2018-02-24 01:11 METAR KPHF 240611Z AUTO 00000KT 3/4SM BR OVC003 10/09 A3026 RMK AO2 T01000094 =
2018-02-24 01:04 METAR KPHF 240604Z AUTO 00000KT 2SM BR OVC003 10/09 A3026 RMK AO2 T01000094 =
2018-02-24 00:54 METAR KPHF 240554Z AUTO 00000KT 3SM BR OVC003 10/09 A3026 RMK AO2 SLP246
                 T01000094 10111 20089 57022 =
2018-02-24 00:39 METAR KPHF 240539Z AUTO 00000KT 3SM BR OVC004 10/09 A3026 RMK AO2 T01000094 =
2018-02-24 00:31 METAR KPHF 240531Z AUTO 00000KT 2SM BR OVC004 10/09 A3027 RMK AO2 T01000094 =
2018-02-24 00:20 METAR KPHF 240520Z AUTO 00000KT 1/2SM FG VV004 09/09 A3027 RMK AO2 T00940089 =
2018-02-23 23:54 METAR KPHF 240454Z AUTO 00000KT 1/4SM FG VV003 09/08 A3028 RMK AO2 SLP254
                 T00940083 401110067 =
2018-02-23 22:54 METAR KPHF 240354Z 00000KT 1/4SM FG VV002 09/09 A3030 RMK AO2 SLP261 T00940089 =
2018-02-23 22:35 METAR KPHF 240335Z 00000KT 1/4SM FG VV002 09/09 A3031 RMK AO2 T00940089 =
2018-02-23 22:27 METAR KPHF 240327Z 00000KT 1/2SM FG VV002 09/09 A3031 RMK AO2 T00940089 =
2018-02-23 22:16 METAR KPHF 240316Z 21004KT 1 3/4SM BR OVC003 09/09 A3032 RMK AO2 T00940089 =
2018-02-23 22:07 METAR KPHF 240307Z 18003KT 3SM BR OVC003 09/08 A3032 RMK AO2 T00940083 =
2018-02-23 21:54 METAR KPHF 240254Z 20004KT 1 1/4SM BR OVC003 09/08 A3033 RMK AO2 SLP268
                 T00890083 56007 =
2018-02-23 21:51 METAR KPHF 240251Z 21005KT 1 3/4SM BR BKN003 09/08 A3033 RMK AO2 =
2018-02-23 21:02 METAR KPHF 240202Z 32003KT 6SM BR BKN007 10/09 A3033 RMK AO2 T01000089 =
2018-02-23 20:54 METAR KPHF 240154Z 33004KT 7SM CLR 10/09 A3033 RMK AO2 SLP270 T01000089 =
2018-02-23 20:32 METAR KPHF 240132Z 25003KT 7SM SCT007 10/09 A3032 RMK AO2 T01000089 =
2018-02-23 20:13 METAR KPHF 240113Z 19006KT 7SM OVC005 11/09 A3032 RMK AO2 T01110094 =
2018-02-23 19:54 METAR KPHF 240054Z 19006KT 6SM BR OVC004 11/09 A3033 RMK AO2 SLP269 T01060094 =
2018-02-23 18:54 METAR KPHF 232354Z 21004KT 4SM BR OVC006 11/09 A3035 RMK AO2 SLP275 T01060094
                 10111 20100 58019 =
2018-02-23 17:54 METAR KPHF 232254Z 23004KT 4SM BR OVC006 11/09 A3037 RMK AO2 SLP283 T01060089 =
2018-02-23 16:54 METAR KPHF 232154Z 20003KT 10SM OVC007 11/09 A3039 RMK AO2 SLP289 T01060089 =
2018-02-23 15:54 METAR KPHF 232054Z 28004KT 10SM OVC009 11/08 A3040 RMK AO2 SLP295 T01110083
                 56018 =
2018-02-23 15:14 METAR KPHF 232014Z 29004KT 10SM OVC009 11/08 A3042 RMK AO2 T01110083 =
2018-02-23 15:04 METAR KPHF 232004Z 31005KT 10SM OVC010 11/08 A3042 RMK AO2 T01110083 =
2018-02-23 14:54 METAR KPHF 231954Z 28007KT 10SM OVC009 11/08 A3042 RMK AO2 SLP301 T01110083 =
2018-02-23 13:54 METAR KPHF 231854Z 00000KT 10SM OVC006 11/08 A3043 RMK AO2 SLP303 T01060083 =
2018-02-23 12:54 METAR KPHF 231754Z 00000KT 10SM OVC005 10/08 A3046 RMK AO2 RAB37E44 SLP312 P0000
                 60000 T01000083 10100 20067 58026 =
2018-02-23 11:54 METAR KPHF 231654Z VRB04KT 5SM BR OVC005 09/08 A3049 RMK AO2 SLP323 T00940083 =
2018-02-23 10:54 METAR KPHF 231554Z 36004KT 3SM BR OVC005 09/08 A3052 RMK AO2 SLP334 T00890078 =
2018-02-23 10:38 METAR KPHF 231538Z 05004KT 5SM BR OVC005 09/08 A3052 RMK AO2 T00890078 =
2018-02-23 10:23 METAR KPHF 231523Z 04004KT 3SM BR OVC004 08/08 A3052 RMK AO2 T00830078 =
2018-02-23 10:09 METAR KPHF 231509Z 01005KT 2 1/2SM BR OVC004 08/07 A3053 RMK AO2 T00830072 =
2018-02-23 09:54 METAR KPHF 231454Z 03005KT 1 3/4SM BR OVC004 08/07 A3053 RMK AO2 SLP338
                 T00830072 58000 =
2018-02-23 08:54 METAR KPHF 231354Z 36005KT 1SM BR OVC003 08/07 A3055 RMK AO2 SLP345 T00780072 =
2018-02-23 08:38 METAR KPHF 231338Z 01004KT 1SM BR OVC003 08/07 A3055 RMK AO2 T00780072 =
2018-02-23 08:09 METAR KPHF 231309Z 01004KT 3/4SM BR OVC003 07/07 A3055 RMK AO2 T00720067 =
2018-02-23 07:54 METAR KPHF 231254Z 02003KT 1SM BR OVC003 07/07 A3054 RMK AO2 SLP342 T00720067 =
2018-02-23 06:54 METAR KPHF 231154Z 05006KT 1 3/4SM BR OVC003 07/06 A3053 RMK AO2 SLP339
                 T00670061 10072 20067 56001 =
2018-02-23 06:23 METAR KPHF 231123Z 03007KT 1 3/4SM BR OVC003 07/06 A3053 RMK AO2 T00670061 =
2018-02-23 05:54 METAR KPHF 231054Z AUTO 02005KT 2 1/2SM BR OVC003 07/06 A3054 RMK AO2 SLP339
                 T00670061 =
2018-02-23 04:54 METAR KPHF 230954Z AUTO 04005KT 2 1/2SM BR OVC004 07/06 A3053 RMK AO2 SLP338
                 T00670061 =
2018-02-23 03:54 METAR KPHF 230854Z AUTO 03007KT 3SM BR OVC004 07/06 A3054 RMK AO2 SLP340
                 T00670056 52001 =
2018-02-23 03:36 METAR KPHF 230836Z AUTO 03008KT 3SM BR OVC005 07/06 A3053 RMK AO2 T00670056 =

Support USWX by starting your Amazon purchase here.